Canoinhas, Brazil
Current Conditions -  °F | °C
As of 2:00 PM on Sunday 23 Nov 2014 (Local Time) from SBCT Reporting Station
Broken Clouds Broken Clouds  
Wind Chill: 70°   Ceiling: 1300
Heat Index: 70°   Visibility: 6mi
Dew Point: 61°   Wind: 7mph
Humidity: 73%   Direction: 80°E
Pressure: 30.06"   Gusts: NA
Location:  26.18°S, 50.4°W
Report Text: SBCT 231600Z 08006KT 9999 BKN013 BKN025 21/16 Q1018
Loading
Personal Weather Stations






























Interactive Weather Map New forecast layout! Learn more

10-Day Weather Forecast

Advertisements
Track Severe Weather on mobile